Time;durP1;ratioP1;P1;durP2;ratioP2;P2;SDS_P1;SDS_P2;PMS_P1;PMS_P2;Temp;Humidity;BMP_temperature;BMP_pressure;BME280_temperature;BME280_humidity;BME280_pressure;Samples;Min_cycle;Max_cycle;Signal;HPM_P1;HPM_P2
2023/02/14 00:01:35;;;;;;;1.45;0.90;;;19.00;67.50;;;;;;6212951;23;19997;-68
2023/02/14 00:04:01;;;;;;;1.58;1.10;;;19.00;67.50;;;;;;6188092;23;19997;-68
2023/02/14 00:06:27;;;;;;;1.30;1.00;;;19.00;67.70;;;;;;6213078;23;20016;-68
2023/02/14 00:08:53;;;;;;;3.67;0.88;;;19.00;67.70;;;;;;6213559;23;20028;-68
2023/02/14 00:11:19;;;;;;;1.55;1.20;;;18.90;67.60;;;;;;6188025;23;20129;-68
2023/02/14 00:15:20;;;;;;;1.83;1.13;;;18.90;67.60;;;;;;6213124;23;20454;-67
2023/02/14 00:16:31;;;;;;;1.80;1.10;;;18.90;67.60;;;;;;6213967;23;20000;-68
2023/02/14 00:19:02;;;;;;;3.95;0.77;;;18.90;67.70;;;;;;6214480;23;19997;-68
2023/02/14 00:21:29;;;;;;;2.55;0.95;;;18.90;67.80;;;;;;6214888;23;19997;-68
2023/02/14 00:23:54;;;;;;;1.75;1.10;;;18.80;67.60;;;;;;6216531;23;20070;-68
2023/02/14 00:26:20;;;;;;;0.95;0.95;;;18.90;67.90;;;;;;6214818;23;20429;-68
2023/02/14 00:28:45;;;;;;;1.90;1.10;;;18.80;67.70;;;;;;6216199;23;20017;-68
2023/02/14 00:31:11;;;;;;;3.90;1.27;;;18.80;67.70;;;;;;6214577;23;19996;-68
2023/02/14 00:33:37;;;;;;;1.50;1.05;;;18.80;67.80;;;;;;6215122;23;20062;-68
2023/02/14 00:36:04;;;;;;;1.65;1.00;;;18.80;67.80;;;;;;6216101;23;20050;-67
2023/02/14 00:38:29;;;;;;;3.03;1.10;;;18.80;67.90;;;;;;6189838;23;20332;-68
2023/02/14 00:40:55;;;;;;;2.22;1.10;;;18.80;68.20;;;;;;6214975;23;20024;-68
2023/02/14 00:43:20;;;;;;;1.50;0.90;;;18.80;68.10;;;;;;6216194;23;20032;-68
2023/02/14 00:45:46;;;;;;;1.35;1.10;;;18.70;68.10;;;;;;6214810;23;19997;-68
2023/02/14 00:48:12;;;;;;;4.25;1.30;;;18.70;68.10;;;;;;6215985;23;20000;-67
2023/02/14 00:50:37;;;;;;;3.33;1.00;;;18.70;68.20;;;;;;6216273;23;20005;-67
2023/02/14 00:53:03;;;;;;;1.10;1.00;;;18.70;68.20;;;;;;6214754;23;20027;-67
2023/02/14 00:55:28;;;;;;;1.10;1.00;;;18.70;68.20;;;;;;6216262;23;20423;-68
2023/02/14 00:57:54;;;;;;;1.02;0.82;;;18.60;68.20;;;;;;6216051;23;20001;-68
2023/02/14 01:00:20;;;;;;;1.60;1.20;;;18.60;68.30;;;;;;6214400;23;20001;-68
2023/02/14 01:02:46;;;;;;;1.27;1.17;;;18.60;68.50;;;;;;6216363;23;20001;-67
2023/02/14 01:05:11;;;;;;;3.75;1.13;;;18.60;68.50;;;;;;6215851;23;20066;-68
2023/02/14 01:07:37;;;;;;;1.95;1.13;;;18.60;68.40;;;;;;6216208;23;20502;-68
2023/02/14 01:10:03;;;;;;;2.75;0.98;;;18.60;68.50;;;;;;6215964;23;20083;-68
2023/02/14 01:12:28;;;;;;;1.23;0.90;;;18.60;68.50;;;;;;6215841;23;20036;-68
2023/02/14 01:14:54;;;;;;;1.45;1.13;;;18.50;68.50;;;;;;6214326;23;20008;-67
2023/02/14 01:17:20;;;;;;;3.60;1.20;;;18.50;68.80;;;;;;6216062;23;20004;-68
2023/02/14 01:19:48;;;;;;;2.63;0.98;;;18.50;68.70;;;;;;6215283;23;20398;-68
2023/02/14 01:22:14;;;;;;;2.67;0.90;;;18.50;68.20;;;;;;6216073;23;20368;-68
2023/02/14 01:24:40;;;;;;;3.63;0.90;;;18.50;68.30;;;;;;6216540;23;20035;-68
2023/02/14 01:27:05;;;;;;;3.38;1.40;;;18.50;69.50;;;;;;6214524;23;20330;-68
2023/02/14 01:29:31;;;;;;;1.33;0.95;;;18.50;68.40;;;;;;6189401;23;20012;-68
2023/02/14 01:31:57;;;;;;;2.00;1.08;;;18.40;68.50;;;;;;6216301;23;20015;-68
2023/02/14 01:34:22;;;;;;;4.72;1.00;;;18.40;68.40;;;;;;6214091;23;20008;-68
2023/02/14 01:36:48;;;;;;;4.30;1.00;;;18.40;68.40;;;;;;6215626;23;20005;-68
2023/02/14 01:39:14;;;;;;;1.17;1.00;;;18.40;68.50;;;;;;6215707;23;20318;-68
2023/02/14 01:41:40;;;;;;;3.22;1.42;;;18.40;68.40;;;;;;6189501;23;20043;-68
2023/02/14 01:44:18;;;;;;;1.30;1.02;;;18.40;68.50;;;;;;6189177;23;20337;-68
2023/02/14 01:46:44;;;;;;;1.50;1.00;;;18.40;68.60;;;;;;6215633;23;20583;-68
2023/02/14 01:49:36;;;;;;;1.52;1.10;;;18.40;68.60;;;;;;6189349;23;20011;-68
2023/02/14 01:52:10;;;;;;;1.30;1.00;;;18.40;68.70;;;;;;6209706;23;20012;-67
2023/02/14 01:54:39;;;;;;;1.58;1.00;;;18.30;68.70;;;;;;6214275;23;20001;-68
2023/02/14 01:57:07;;;;;;;1.35;0.88;;;18.30;68.70;;;;;;6188893;23;20000;-68
2023/02/14 01:59:35;;;;;;;2.15;1.05;;;18.30;69.00;;;;;;6214353;23;20028;-68
2023/02/14 02:02:00;;;;;;;1.95;0.90;;;18.30;69.00;;;;;;6189490;23;20001;-68
2023/02/14 02:04:30;;;;;;;1.20;1.10;;;18.30;68.90;;;;;;6214117;23;20001;-68
2023/02/14 02:07:03;;;;;;;1.95;1.00;;;18.30;68.80;;;;;;6189547;23;20004;-68
2023/02/14 02:09:34;;;;;;;0.98;0.82;;;18.30;68.80;;;;;;6214122;23;20016;-68
2023/02/14 02:12:00;;;;;;;1.00;0.95;;;18.30;69.00;;;;;;6213735;23;20005;-67
2023/02/14 02:14:27;;;;;;;2.28;1.02;;;18.30;69.00;;;;;;6214031;23;20004;-68
2023/02/14 02:16:53;;;;;;;3.38;1.05;;;18.20;69.10;;;;;;6214008;23;20059;-68
2023/02/14 02:19:27;;;;;;;1.25;0.88;;;18.30;69.10;;;;;;6215295;23;20385;-68
2023/02/14 02:22:12;;;;;;;1.83;1.00;;;18.20;69.20;;;;;;6215231;23;20001;-68
2023/02/14 02:24:43;;;;;;;3.63;1.20;;;18.20;69.00;;;;;;6215455;23;20099;-68
2023/02/14 02:27:44;;;;;;;2.58;1.10;;;18.20;69.20;;;;;;6214846;23;20004;-68
2023/02/14 02:30:37;;;;;;;1.02;0.70;;;18.20;69.20;;;;;;6094084;23;20455;-68
2023/02/14 02:33:30;;;;;;;2.78;1.15;;;18.10;69.20;;;;;;6094298;23;20061;-68
2023/02/14 02:36:10;;;;;;;1.70;1.10;;;18.10;69.30;;;;;;6094079;23;20093;-68
2023/02/14 02:38:38;;;;;;;1.25;0.90;;;18.10;69.30;;;;;;6093975;23;20077;-68
2023/02/14 02:41:49;;;;;;;2.85;1.05;;;18.10;69.50;;;;;;6093981;23;20006;-68
2023/02/14 02:44:45;;;;;;;1.63;0.82;;;18.10;69.40;;;;;;6093977;23;20006;-68
2023/02/14 02:47:34;;;;;;;8.68;1.33;;;18.10;70.50;;;;;;6084038;23;20138;-68
2023/02/14 02:53:09;;;;;;;0.90;0.90;;;18.10;69.60;;;;;;6074884;23;20022;-68
2023/02/14 02:59:16;;;;;;;2.60;1.00;;;18.00;69.60;;;;;;6077001;23;20058;-68
2023/02/14 03:01:44;;;;;;;1.40;0.93;;;18.00;69.70;;;;;;6072653;23;20003;-68
2023/02/14 03:06:55;;;;;;;4.90;1.15;;;18.00;69.70;;;;;;6213748;23;20031;-68
2023/02/14 03:09:27;;;;;;;3.53;1.30;;;18.00;69.70;;;;;;6188636;23;20011;-68
2023/02/14 03:12:11;;;;;;;2.83;1.10;;;18.00;69.80;;;;;;6215027;23;20059;-68
2023/02/14 03:14:49;;;;;;;3.47;0.90;;;18.00;69.70;;;;;;6214770;23;20326;-68
2023/02/14 03:17:21;;;;;;;4.95;1.05;;;18.00;69.80;;;;;;6189586;23;20001;-68
2023/02/14 03:20:15;;;;;;;2.88;1.10;;;18.00;69.90;;;;;;6213542;23;20004;-68
2023/02/14 03:22:59;;;;;;;2.30;1.02;;;18.00;69.90;;;;;;6213596;23;20003;-68
2023/02/14 03:25:34;;;;;;;3.75;1.30;;;17.90;69.80;;;;;;6213103;23;20001;-67
2023/02/14 03:28:27;;;;;;;2.83;1.08;;;17.90;70.00;;;;;;6213172;23;20019;-67
2023/02/14 03:31:11;;;;;;;5.35;1.10;;;17.90;70.00;;;;;;6214915;23;20005;-68
2023/02/14 03:33:50;;;;;;;1.98;1.00;;;17.90;69.80;;;;;;6213386;23;20053;-67
2023/02/14 03:36:20;;;;;;;3.60;1.08;;;17.90;70.00;;;;;;6188983;23;20027;-68
2023/02/14 03:38:53;;;;;;;2.20;1.17;;;17.90;70.00;;;;;;6212912;23;20404;-67
2023/02/14 03:41:24;;;;;;;4.05;1.08;;;17.90;70.00;;;;;;6214811;23;19996;-67
2023/02/14 03:43:58;;;;;;;1.67;1.10;;;17.80;70.00;;;;;;6213298;23;20071;-68
2023/02/14 03:46:27;;;;;;;1.60;0.93;;;17.80;70.00;;;;;;6189013;23;20011;-68
2023/02/14 03:48:54;;;;;;;1.70;1.30;;;17.80;70.10;;;;;;6213276;23;20068;-67
2023/02/14 03:51:20;;;;;;;8.93;1.20;;;17.80;70.10;;;;;;6188217;23;20000;-68
2023/02/14 03:53:47;;;;;;;0.90;0.80;;;17.80;70.10;;;;;;6188067;23;20082;-68
2023/02/14 03:56:46;;;;;;;1.98;0.90;;;17.80;70.20;;;;;;6213125;23;19997;-67
2023/02/14 03:59:17;;;;;;;1.13;1.00;;;17.80;70.10;;;;;;6212991;23;20349;-67
2023/02/14 04:02:04;;;;;;;1.77;1.23;;;17.80;70.10;;;;;;6213104;23;20001;-68
2023/02/14 04:04:31;;;;;;;3.45;1.20;;;17.70;70.10;;;;;;6212943;23;20000;-67
2023/02/14 04:06:57;;;;;;;2.38;0.98;;;17.70;70.10;;;;;;6188307;23;20005;-68
2023/02/14 04:09:22;;;;;;;2.22;1.05;;;17.70;70.20;;;;;;6212824;23;20385;-68
2023/02/14 04:11:49;;;;;;;1.90;0.88;;;17.70;70.10;;;;;;6214506;23;20008;-67
2023/02/14 04:14:15;;;;;;;1.48;1.02;;;17.70;70.20;;;;;;6188165;23;20401;-67
2023/02/14 04:19:25;;;;;;;1.08;0.80;;;17.70;70.30;;;;;;6213278;23;20070;-68
2023/02/14 04:21:51;;;;;;;1.38;0.88;;;17.70;70.30;;;;;;6214510;23;20075;-68
2023/02/14 04:24:17;;;;;;;3.28;0.90;;;17.70;70.40;;;;;;6212851;23;20012;-68
2023/02/14 04:26:52;;;;;;;1.05;1.00;;;17.70;70.40;;;;;;6187861;23;20004;-68
2023/02/14 04:29:21;;;;;;;2.17;1.20;;;17.70;70.40;;;;;;6214233;23;20021;-68
2023/02/14 04:31:47;;;;;;;1.50;1.00;;;17.60;70.30;;;;;;6214407;23;20329;-68
2023/02/14 04:34:12;;;;;;;0.70;0.70;;;17.60;70.30;;;;;;6188086;23;20076;-68
2023/02/14 04:36:38;;;;;;;1.55;1.10;;;17.60;70.30;;;;;;6187491;23;20341;-68
2023/02/14 04:39:03;;;;;;;1.50;0.90;;;17.60;70.30;;;;;;6214344;23;20000;-68
2023/02/14 04:41:29;;;;;;;1.80;1.00;;;17.60;70.30;;;;;;6214256;23;19996;-68
2023/02/14 04:43:55;;;;;;;3.75;0.95;;;17.60;70.50;;;;;;6214384;23;20008;-68
2023/02/14 04:46:20;;;;;;;2.85;1.08;;;17.60;70.40;;;;;;6214350;23;20008;-68
2023/02/14 04:48:46;;;;;;;2.40;0.93;;;17.60;70.50;;;;;;6214105;23;20008;-68
2023/02/14 04:51:12;;;;;;;3.08;1.05;;;17.60;70.50;;;;;;6214091;23;20008;-68
2023/02/14 04:53:39;;;;;;;1.95;0.73;;;17.60;70.50;;;;;;6212849;23;20008;-68
2023/02/14 04:56:06;;;;;;;1.35;1.00;;;17.60;70.50;;;;;;6212871;23;20464;-68
2023/02/14 04:58:31;;;;;;;1.98;1.00;;;17.60;70.50;;;;;;6212668;23;20491;-67
2023/02/14 05:00:57;;;;;;;2.58;1.13;;;17.50;70.60;;;;;;6212941;23;20012;-67
2023/02/14 05:03:23;;;;;;;1.95;0.70;;;17.50;71.00;;;;;;6212555;23;20334;-68
2023/02/14 05:05:48;;;;;;;1.38;0.90;;;17.50;70.70;;;;;;6212892;23;19996;-68
2023/02/14 05:08:14;;;;;;;1.30;1.10;;;17.50;70.70;;;;;;6216182;23;20004;-67
2023/02/14 05:10:40;;;;;;;2.97;0.90;;;17.50;70.70;;;;;;6214548;23;20441;-67
2023/02/14 05:13:05;;;;;;;1.05;0.80;;;17.50;70.70;;;;;;6216036;23;20004;-68
2023/02/14 05:15:31;;;;;;;1.40;0.82;;;17.50;70.80;;;;;;6215936;23;20074;-68
2023/02/14 05:18:00;;;;;;;0.80;0.80;;;17.50;70.80;;;;;;6214516;23;20349;-67
2023/02/14 05:20:27;;;;;;;1.17;1.05;;;17.50;70.90;;;;;;6215735;23;20008;-67
2023/02/14 05:22:52;;;;;;;0.93;0.80;;;17.50;71.00;;;;;;6216182;23;20004;-68
2023/02/14 05:25:18;;;;;;;1.77;1.02;;;17.50;70.90;;;;;;6214450;23;20001;-68
2023/02/14 05:27:44;;;;;;;0.82;0.82;;;17.50;70.90;;;;;;6189192;23;20087;-68
2023/02/14 05:30:10;;;;;;;2.00;0.90;;;17.40;70.90;;;;;;6189731;23;20075;-68
2023/02/14 05:32:36;;;;;;;1.40;1.05;;;17.40;71.00;;;;;;6215692;23;20008;-68
2023/02/14 05:35:02;;;;;;;1.05;0.90;;;17.40;71.00;;;;;;6215517;23;20000;-68
2023/02/14 05:37:28;;;;;;;2.30;0.82;;;17.40;71.00;;;;;;6215818;23;20008;-68
2023/02/14 05:39:53;;;;;;;0.95;0.90;;;17.40;71.00;;;;;;6214567;23;20005;-68
2023/02/14 05:42:19;;;;;;;0.90;0.85;;;17.40;71.00;;;;;;6215965;23;19996;-68
2023/02/14 05:44:44;;;;;;;1.90;0.82;;;17.40;71.10;;;;;;6214062;23;20004;-67
2023/02/14 05:47:10;;;;;;;1.08;0.80;;;17.40;71.10;;;;;;6215856;23;20005;-67
2023/02/14 05:49:36;;;;;;;1.25;0.80;;;17.40;71.10;;;;;;6214086;23;20005;-67
2023/02/14 05:52:01;;;;;;;0.90;0.80;;;17.40;71.20;;;;;;6215757;23;20004;-67
2023/02/14 05:54:27;;;;;;;0.93;0.85;;;17.40;71.20;;;;;;6214096;23;20485;-67
2023/02/14 05:56:53;;;;;;;1.10;0.90;;;17.30;71.20;;;;;;6215663;23;20004;-68
2023/02/14 05:59:18;;;;;;;1.52;0.90;;;17.30;71.20;;;;;;6215593;23;20051;-67
2023/02/14 06:01:44;;;;;;;0.60;0.60;;;17.30;71.20;;;;;;6214114;23;20003;-68
2023/02/14 06:04:10;;;;;;;0.73;0.73;;;17.30;71.40;;;;;;6215459;23;20000;-68
2023/02/14 06:06:35;;;;;;;2.10;0.90;;;17.30;71.50;;;;;;6215463;23;20030;-68
2023/02/14 06:09:01;;;;;;;1.42;0.80;;;17.30;71.50;;;;;;6214296;23;20425;-68
2023/02/14 06:11:26;;;;;;;1.33;0.93;;;17.30;70.80;;;;;;6214607;23;20071;-68
2023/02/14 06:13:52;;;;;;;0.77;0.73;;;17.30;69.10;;;;;;6215288;23;20048;-68
2023/02/14 06:16:18;;;;;;;1.77;0.80;;;17.30;68.70;;;;;;6214138;23;20375;-68
2023/02/14 06:18:43;;;;;;;1.58;1.20;;;17.30;68.00;;;;;;6214530;23;20009;-68
2023/02/14 06:21:09;;;;;;;2.90;1.27;;;17.30;68.20;;;;;;6213752;23;20315;-68
2023/02/14 06:23:34;;;;;;;1.27;1.00;;;17.40;68.60;;;;;;6215472;23;20001;-68
2023/02/14 06:26:00;;;;;;;1.35;1.25;;;17.40;68.70;;;;;;6215433;23;19997;-68
2023/02/14 06:28:26;;;;;;;1.20;1.10;;;17.40;68.60;;;;;;6213636;23;20390;-68
2023/02/14 06:30:51;;;;;;;3.40;1.20;;;17.40;68.50;;;;;;6215454;23;20008;-68
2023/02/14 06:33:17;;;;;;;1.55;1.20;;;17.40;68.50;;;;;;6215228;23;20004;-68
2023/02/14 06:35:43;;;;;;;2.75;1.25;;;17.40;68.30;;;;;;6213683;23;20433;-68
2023/02/14 06:38:08;;;;;;;1.90;1.20;;;17.40;68.30;;;;;;6215351;23;20031;-68
2023/02/14 06:40:34;;;;;;;2.50;1.23;;;17.40;68.00;;;;;;6215081;23;20520;-68
2023/02/14 06:42:59;;;;;;;1.23;1.13;;;17.40;68.00;;;;;;6215229;23;20024;-68
2023/02/14 06:45:25;;;;;;;1.70;1.33;;;17.40;67.90;;;;;;6215251;23;20074;-68
2023/02/14 06:47:51;;;;;;;1.80;1.20;;;17.40;67.80;;;;;;6213452;23;20075;-68
2023/02/14 06:50:16;;;;;;;1.65;1.10;;;17.40;67.80;;;;;;6215354;23;20032;-68
2023/02/14 06:52:43;;;;;;;0.95;0.95;;;17.40;67.60;;;;;;6214985;23;20008;-68
2023/02/14 06:55:11;;;;;;;1.27;0.90;;;17.50;67.60;;;;;;6214940;23;20005;-68
2023/02/14 06:57:36;;;;;;;1.10;1.00;;;17.40;67.50;;;;;;6215036;23;20050;-68
2023/02/14 07:00:02;;;;;;;1.20;1.02;;;17.40;67.50;;;;;;6212937;23;20008;-68
2023/02/14 07:02:28;;;;;;;1.08;1.00;;;17.40;67.50;;;;;;6213731;23;20437;-68
2023/02/14 07:04:53;;;;;;;2.38;1.05;;;17.50;67.50;;;;;;6213713;23;20005;-68
2023/02/14 07:07:19;;;;;;;2.15;1.10;;;17.50;67.60;;;;;;6213795;23;20075;-68
2023/02/14 07:09:45;;;;;;;1.20;1.00;;;17.50;67.50;;;;;;6214261;23;20004;-68
2023/02/14 07:12:10;;;;;;;2.00;1.15;;;17.50;68.60;;;;;;6214943;23;20341;-67
2023/02/14 07:14:36;;;;;;;8.68;2.05;;;17.50;67.40;;;;;;6214841;23;20552;-68
2023/02/14 07:17:01;;;;;;;30.55;5.50;;;17.50;67.50;;;;;;6213928;23;20032;-68
2023/02/14 07:19:27;;;;;;;25.83;5.38;;;17.50;68.40;;;;;;6211868;23;20001;-68
2023/02/14 07:21:53;;;;;;;32.40;5.38;;;17.50;68.70;;;;;;6214633;23;20434;-68
2023/02/14 07:24:18;;;;;;;25.58;4.57;;;17.50;68.90;;;;;;6214780;23;20000;-68
2023/02/14 07:26:44;;;;;;;24.77;4.38;;;17.50;69.00;;;;;;6213035;23;20000;-68
2023/02/14 07:29:10;;;;;;;17.08;4.20;;;17.50;69.20;;;;;;6212820;23;20350;-68
2023/02/14 07:31:35;;;;;;;14.75;4.22;;;17.50;68.80;;;;;;6212867;23;20008;-68
2023/02/14 07:34:01;;;;;;;14.98;3.20;;;17.50;68.70;;;;;;6211659;23;20000;-68
2023/02/14 07:36:27;;;;;;;11.98;3.50;;;17.50;68.50;;;;;;6213101;23;20075;-68
2023/02/14 07:38:54;;;;;;;18.63;3.60;;;17.50;68.40;;;;;;6213357;23;20082;-68
2023/02/14 07:41:19;;;;;;;13.02;3.95;;;17.50;68.30;;;;;;6186908;23;20422;-68
2023/02/14 07:43:45;;;;;;;15.13;3.55;;;17.50;68.20;;;;;;6214448;23;20282;-68
2023/02/14 07:46:10;;;;;;;8.07;3.30;;;17.50;68.10;;;;;;6214513;23;20076;-68
2023/02/14 07:48:38;;;;;;;12.07;3.83;;;17.50;68.00;;;;;;6214476;23;20039;-68
2023/02/14 07:51:03;;;;;;;12.23;3.70;;;17.50;68.00;;;;;;6214695;23;20001;-68
2023/02/14 07:53:29;;;;;;;10.32;2.90;;;17.50;67.90;;;;;;6213353;23;20008;-68
2023/02/14 07:55:55;;;;;;;12.32;3.47;;;17.50;67.80;;;;;;6187937;23;20001;-68
2023/02/14 07:58:20;;;;;;;8.38;2.95;;;17.50;67.60;;;;;;6214604;23;20028;-67
2023/02/14 08:00:46;;;;;;;9.00;2.88;;;17.50;67.50;;;;;;6214107;23;19996;-68
2023/02/14 08:03:12;;;;;;;8.07;2.95;;;17.50;67.50;;;;;;6214515;23;20000;-68
2023/02/14 08:05:38;;;;;;;10.55;2.90;;;17.50;67.50;;;;;;6188059;23;20007;-68
2023/02/14 08:08:04;;;;;;;10.80;3.03;;;17.50;67.50;;;;;;6213039;23;20393;-68
2023/02/14 08:10:29;;;;;;;7.47;2.45;;;17.50;67.50;;;;;;6213099;23;20377;-68
2023/02/14 08:12:58;;;;;;;11.35;2.80;;;17.50;67.40;;;;;;6212958;23;20005;-68
2023/02/14 08:18:16;;;;;;;8.25;2.78;;;17.50;67.30;;;;;;6214681;23;20015;-68
2023/02/14 08:20:42;;;;;;;8.18;2.75;;;17.50;67.30;;;;;;6212976;23;20024;-68
2023/02/14 08:23:08;;;;;;;7.78;3.03;;;17.50;67.30;;;;;;6214905;23;20003;-68
2023/02/14 08:25:33;;;;;;;8.60;2.85;;;17.50;67.30;;;;;;6213066;23;20079;-68
2023/02/14 08:28:01;;;;;;;6.45;2.55;;;17.50;67.30;;;;;;6214117;23;20013;-68
2023/02/14 08:30:27;;;;;;;7.38;2.72;;;17.50;67.20;;;;;;6212813;23;20476;-68
2023/02/14 08:32:53;;;;;;;9.23;2.47;;;17.50;67.20;;;;;;6214285;23;20000;-68
2023/02/14 08:35:18;;;;;;;6.57;2.70;;;17.50;67.20;;;;;;6212794;23;20449;-68
2023/02/14 08:37:44;;;;;;;6.22;2.28;;;17.50;67.20;;;;;;6212797;23;20043;-68
2023/02/14 08:40:10;;;;;;;7.35;2.10;;;17.50;67.20;;;;;;6214342;23;20001;-68
2023/02/14 08:42:35;;;;;;;6.45;2.30;;;17.50;67.10;;;;;;6216296;23;20012;-68
2023/02/14 08:45:01;;;;;;;3.65;2.10;;;17.50;67.20;;;;;;6216123;23;20503;-68
2023/02/14 08:47:27;;;;;;;4.47;2.70;;;17.50;67.10;;;;;;6216165;23;20004;-68
2023/02/14 08:49:52;;;;;;;4.53;2.10;;;17.40;67.00;;;;;;6216022;23;20000;-67
2023/02/14 08:52:18;;;;;;;7.32;2.60;;;17.40;66.90;;;;;;6216300;23;20009;-68
2023/02/14 08:54:43;;;;;;;5.03;2.65;;;17.50;67.00;;;;;;6214742;23;20011;-68
2023/02/14 08:57:09;;;;;;;4.65;2.40;;;17.50;67.00;;;;;;6216024;23;20004;-68
2023/02/14 08:59:35;;;;;;;5.07;2.03;;;17.40;67.40;;;;;;6216144;23;20401;-68
2023/02/14 09:02:00;;;;;;;3.92;1.95;;;17.40;66.80;;;;;;6215878;23;20004;-68
2023/02/14 09:04:26;;;;;;;3.58;2.00;;;17.40;66.80;;;;;;6216061;23;20001;-68
2023/02/14 09:06:51;;;;;;;3.67;1.70;;;17.50;66.90;;;;;;6216006;23;20083;-68
2023/02/14 09:09:18;;;;;;;4.53;2.03;;;17.40;66.70;;;;;;6216149;23;20076;-68
2023/02/14 09:11:44;;;;;;;4.57;2.30;;;17.40;66.60;;;;;;6216090;23;20008;-68
2023/02/14 09:14:09;;;;;;;3.35;1.50;;;17.40;66.60;;;;;;6214291;23;20000;-68
2023/02/14 09:16:35;;;;;;;3.42;1.95;;;17.40;66.60;;;;;;6214588;23;19997;-67
2023/02/14 09:19:00;;;;;;;4.57;2.40;;;17.40;66.60;;;;;;6216010;23;20400;-68
2023/02/14 09:21:26;;;;;;;2.90;1.85;;;17.40;66.60;;;;;;6214420;23;20027;-68
2023/02/14 09:23:52;;;;;;;2.58;1.83;;;17.40;66.50;;;;;;6189574;23;20342;-68
2023/02/14 09:26:18;;;;;;;5.57;1.65;;;17.40;66.50;;;;;;6214609;23;20414;-68
2023/02/14 09:28:44;;;;;;;4.60;2.10;;;17.40;66.50;;;;;;6189131;23;20017;-68
2023/02/14 09:31:15;;;;;;;2.10;1.65;;;17.40;66.50;;;;;;6215996;23;20004;-68
2023/02/14 09:36:25;;;;;;;3.38;1.88;;;17.40;66.40;;;;;;6193358;23;20012;-68
2023/02/14 09:38:50;;;;;;;4.50;1.65;;;17.40;66.40;;;;;;6215736;23;20009;-68
2023/02/14 09:41:28;;;;;;;2.20;1.70;;;17.40;66.30;;;;;;6215524;23;20438;-68
2023/02/14 09:43:55;;;;;;;3.92;2.10;;;17.40;66.30;;;;;;6215758;23;20380;-68
2023/02/14 09:46:20;;;;;;;3.20;1.98;;;17.40;66.40;;;;;;6214265;23;20508;-68
2023/02/14 09:48:46;;;;;;;3.42;2.00;;;17.40;66.30;;;;;;6189181;23;20036;-68
2023/02/14 09:51:24;;;;;;;2.72;1.60;;;17.40;66.30;;;;;;6189299;23;20024;-68
2023/02/14 09:53:51;;;;;;;3.28;1.90;;;17.40;66.30;;;;;;6189601;23;20448;-68
2023/02/14 09:56:42;;;;;;;2.78;1.95;;;17.40;66.30;;;;;;6189358;23;20054;-68
2023/02/14 09:59:35;;;;;;;2.75;1.83;;;17.40;66.20;;;;;;6214139;23;20387;-68
2023/02/14 10:02:22;;;;;;;2.67;1.70;;;17.40;66.20;;;;;;6070398;23;20013;-68
2023/02/14 10:05:05;;;;;;;2.70;1.83;;;17.40;66.20;;;;;;6094509;23;20454;-68
2023/02/14 10:08:01;;;;;;;2.55;1.60;;;17.40;66.20;;;;;;6071670;23;20007;-68
2023/02/14 10:10:31;;;;;;;2.22;1.83;;;17.40;66.20;;;;;;6072048;23;20006;-68
2023/02/14 10:13:16;;;;;;;1.98;1.40;;;17.40;66.30;;;;;;6070428;23;20009;-68
2023/02/14 10:15:47;;;;;;;2.25;1.50;;;17.40;66.20;;;;;;6073489;23;20007;-68
2023/02/14 10:18:24;;;;;;;2.47;1.73;;;17.40;66.20;;;;;;6070674;23;20013;-68
2023/02/14 10:20:57;;;;;;;2.10;1.80;;;17.30;66.10;;;;;;6070176;23;20072;-68
2023/02/14 10:23:33;;;;;;;3.40;1.65;;;17.30;66.10;;;;;;6071498;23;20002;-68
2023/02/14 10:26:31;;;;;;;2.40;1.60;;;17.30;66.10;;;;;;6069963;23;20040;-68
2023/02/14 10:28:57;;;;;;;2.10;1.70;;;17.30;66.10;;;;;;6063360;23;20015;-68
2023/02/14 10:31:41;;;;;;;2.53;1.67;;;17.30;66.10;;;;;;6070184;23;20077;-68
2023/02/14 10:34:09;;;;;;;1.92;1.50;;;17.30;66.00;;;;;;6072972;23;20006;-67
2023/02/14 10:36:50;;;;;;;3.17;1.67;;;17.30;66.10;;;;;;6070375;23;20037;-67
2023/02/14 10:39:21;;;;;;;1.63;1.52;;;17.30;67.00;;;;;;6170147;23;20004;-68
2023/02/14 10:42:15;;;;;;;1.83;1.40;;;17.30;66.00;;;;;;6215197;23;20004;-68
2023/02/14 10:45:16;;;;;;;3.78;1.90;;;17.30;66.10;;;;;;6093917;23;20035;-68
2023/02/14 10:47:51;;;;;;;1.55;1.27;;;17.30;66.00;;;;;;6036578;23;20034;-68
2023/02/14 10:50:36;;;;;;;3.15;1.55;;;17.30;66.00;;;;;;6036753;23;20346;-67
2023/02/14 10:53:24;;;;;;;2.85;1.50;;;17.30;66.00;;;;;;6012991;23;20015;-68
2023/02/14 10:56:02;;;;;;;1.70;1.60;;;17.30;66.00;;;;;;6028632;23;20626;-68
2023/02/14 10:58:30;;;;;;;2.38;1.67;;;17.30;66.00;;;;;;6012822;23;20007;-68
2023/02/14 11:01:02;;;;;;;2.45;1.42;;;17.30;66.00;;;;;;6013325;23;20011;-68
2023/02/14 11:03:28;;;;;;;1.77;1.20;;;17.30;66.00;;;;;;6012688;23;20385;-68
2023/02/14 11:05:54;;;;;;;2.70;1.20;;;17.30;66.00;;;;;;6012656;23;20003;-68
2023/02/14 11:08:27;;;;;;;2.28;1.40;;;17.30;66.00;;;;;;6012606;23;20007;-68
2023/02/14 11:10:56;;;;;;;1.88;1.58;;;17.30;65.90;;;;;;6012774;23;20008;-68
2023/02/14 11:13:35;;;;;;;1.45;1.20;;;17.30;65.90;;;;;;6012707;23;20495;-68
2023/02/14 11:16:05;;;;;;;1.85;1.42;;;17.30;66.00;;;;;;6012515;23;20476;-68
2023/02/14 11:18:38;;;;;;;1.13;1.02;;;17.30;66.00;;;;;;6012570;23;20103;-68
2023/02/14 11:21:13;;;;;;;;;;;17.30;65.90;;;;;;6022757;23;20003;-68
2023/02/14 11:23:44;;;;;;;1.63;1.40;;;17.30;66.00;;;;;;6063849;23;19908;-67
2023/02/14 11:26:23;;;;;;;1.40;1.30;;;17.30;65.90;;;;;;6189113;23;20005;-68
2023/02/14 11:29:09;;;;;;;1.73;1.63;;;17.30;66.00;;;;;;6213329;23;20078;-68
2023/02/14 11:31:36;;;;;;;1.85;1.20;;;17.30;65.90;;;;;;6190306;23;20001;-67
2023/02/14 11:34:06;;;;;;;1.70;1.50;;;17.30;65.90;;;;;;6188263;23;20008;-68
2023/02/14 11:36:32;;;;;;;1.65;1.40;;;17.30;65.90;;;;;;6188752;23;20062;-67
2023/02/14 11:39:16;;;;;;;1.50;1.40;;;17.30;65.80;;;;;;6212918;23;20005;-68
2023/02/14 11:41:54;;;;;;;1.30;1.20;;;17.30;65.80;;;;;;6166230;23;20346;-67
2023/02/14 11:44:25;;;;;;;1.25;1.15;;;17.30;65.80;;;;;;6188891;23;20429;-68
2023/02/14 11:46:52;;;;;;;1.40;1.30;;;17.30;65.80;;;;;;6214774;23;20047;-68
2023/02/14 11:49:32;;;;;;;1.30;1.10;;;17.30;65.80;;;;;;6188192;23;20072;-68
2023/02/14 11:51:59;;;;;;;1.95;1.38;;;17.30;65.80;;;;;;6212720;23;20012;-68
2023/02/14 11:54:34;;;;;;;1.75;1.13;;;17.30;65.80;;;;;;6188545;23;20345;-68
2023/02/14 11:57:10;;;;;;;1.30;1.13;;;17.30;65.80;;;;;;6188510;23;20054;-68
2023/02/14 11:59:47;;;;;;;1.00;0.90;;;17.30;65.70;;;;;;6189482;23;20004;-68
2023/02/14 12:02:36;;;;;;;1.88;1.17;;;17.30;65.70;;;;;;6214441;23;20001;-67
2023/02/14 12:05:14;;;;;;;1.45;1.30;;;17.30;65.80;;;;;;6214540;23;19997;-68
2023/02/14 12:07:41;;;;;;;1.15;0.93;;;17.30;65.70;;;;;;6190013;23;20005;-68
2023/02/14 12:10:15;;;;;;;1.30;1.20;;;17.30;65.70;;;;;;6213030;23;20012;-68
2023/02/14 12:13:02;;;;;;;1.20;1.08;;;17.30;65.70;;;;;;6212861;23;20472;-68
2023/02/14 12:15:39;;;;;;;0.93;0.93;;;17.30;65.70;;;;;;6188685;23;20005;-68
2023/02/14 12:18:39;;;;;;;1.00;1.00;;;17.30;65.70;;;;;;6190013;23;20345;-68
2023/02/14 12:21:31;;;;;;;2.28;1.13;;;17.30;65.70;;;;;;6216280;23;20004;-68
2023/02/14 12:24:32;;;;;;;1.90;1.00;;;17.30;65.70;;;;;;6215204;23;20287;-68
2023/02/14 12:27:09;;;;;;;1.73;1.30;;;17.30;65.70;;;;;;6178148;23;20026;-68
2023/02/14 12:29:57;;;;;;;1.10;0.90;;;17.30;65.80;;;;;;6216278;23;20008;-68
2023/02/14 12:32:25;;;;;;;1.20;1.10;;;17.30;65.80;;;;;;6215139;23;20000;-68
2023/02/14 12:35:17;;;;;;;1.58;1.10;;;17.30;65.70;;;;;;6190201;23;20001;-68
2023/02/14 12:37:58;;;;;;;1.27;1.10;;;17.30;65.70;;;;;;6215113;23;20441;-68
2023/02/14 12:40:58;;;;;;;1.08;1.00;;;17.30;65.70;;;;;;6216232;23;19997;-68
2023/02/14 12:43:37;;;;;;;1.00;1.00;;;17.40;65.90;;;;;;6215032;23;20029;-68
2023/02/14 12:46:05;;;;;;;1.15;1.00;;;17.30;65.70;;;;;;6189734;23;20004;-67
2023/02/14 12:48:41;;;;;;;1.13;0.80;;;17.40;65.80;;;;;;6216124;23;20000;-68
2023/02/14 12:51:13;;;;;;;1.13;1.00;;;17.40;65.80;;;;;;6214514;23;20000;-68
2023/02/14 12:53:38;;;;;;;1.00;0.93;;;17.40;65.80;;;;;;6214895;23;20038;-68
2023/02/14 12:56:36;;;;;;;1.35;1.00;;;17.40;65.80;;;;;;6216032;23;20000;-68
2023/02/14 12:59:27;;;;;;;0.90;0.90;;;17.40;65.70;;;;;;6094958;23;20010;-68
2023/02/14 13:02:30;;;;;;;1.00;0.90;;;17.40;65.70;;;;;;6071023;23;20003;-68
2023/02/14 13:04:58;;;;;;;1.03;1.00;;;17.40;65.70;;;;;;6054022;23;20081;-68
2023/02/14 13:07:24;;;;;;;2.00;1.00;;;17.40;65.70;;;;;;6071167;23;20479;-68
2023/02/14 13:09:52;;;;;;;1.10;1.02;;;17.40;65.70;;;;;;6095187;23;20013;-68
2023/02/14 13:12:45;;;;;;;0.88;0.88;;;17.40;65.70;;;;;;6095009;23;20081;-68
2023/02/14 13:15:17;;;;;;;;;;;17.40;65.70;;;;;;6095383;23;20014;-68
2023/02/14 13:17:46;;;;;;;1.23;1.00;;;17.40;65.70;;;;;;6094921;23;19933;-68
2023/02/14 13:20:38;;;;;;;1.00;1.00;;;17.40;65.80;;;;;;6094904;23;20009;-68
2023/02/14 13:23:08;;;;;;;1.60;0.98;;;17.40;65.70;;;;;;6094870;23;20002;-68